Time;durP1;ratioP1;P1;durP2;ratioP2;P2;SDS_P1;SDS_P2;PMS_P1;PMS_P2;Temp;Humidity;BMP_temperature;BMP_pressure;BME280_temperature;BME280_humidity;BME280_pressure;Samples;Min_cycle;Max_cycle;Signal;HPM_P1;HPM_P2
2022/09/10 00:01:24;;;;;;;0.50;0.40;;;;;;;15.09;75.74;98630.34;4916555;29;20082;-67
2022/09/10 00:03:53;;;;;;;0.63;0.45;;;;;;;15.10;75.25;98629.34;4915121;29;20060;-66
2022/09/10 00:06:24;;;;;;;0.50;0.40;;;;;;;15.09;75.54;98630.34;4914771;29;20500;-67
2022/09/10 00:08:52;;;;;;;0.50;0.40;;;;;;;15.08;75.66;98636.72;4914978;29;20052;-67
2022/09/10 00:11:19;;;;;;;1.00;0.60;;;;;;;15.12;75.69;98631.75;4915330;29;20068;-67
2022/09/10 00:13:46;;;;;;;1.05;0.50;;;;;;;15.17;75.78;98629.22;4899324;29;20150;-67
2022/09/10 00:16:15;;;;;;;0.82;0.50;;;;;;;15.22;75.57;98629.34;4915196;29;20461;-67
2022/09/10 00:18:42;;;;;;;0.90;0.40;;;;;;;15.26;75.26;98624.38;4914388;29;20107;-67
2022/09/10 00:21:11;;;;;;;2.38;0.68;;;;;;;15.26;75.32;98624.38;4914876;29;20104;-67
2022/09/10 00:23:39;;;;;;;1.00;0.50;;;;;;;15.24;75.30;98615.81;4914832;29;20056;-67
2022/09/10 00:26:17;;;;;;;0.45;0.45;;;;;;;15.24;75.24;98613.97;4915016;29;20444;-67
2022/09/10 00:28:44;;;;;;;0.73;0.73;;;;;;;15.26;75.71;98622.53;4914736;29;20527;-66
2022/09/10 00:31:12;;;;;;;0.65;0.52;;;;;;;15.30;75.44;98622.91;4915036;29;20052;-67
2022/09/10 00:33:40;;;;;;;0.43;0.43;;;;;;;15.32;75.50;98623.50;4914674;29;20103;-67
2022/09/10 00:36:18;;;;;;;0.40;0.40;;;;;;;15.32;75.31;98618.16;4915499;29;20048;-67
2022/09/10 00:38:45;;;;;;;1.05;0.50;;;;;;;15.33;75.34;98625.09;4916052;29;20087;-67
2022/09/10 00:41:14;;;;;;;0.30;0.30;;;;;;;15.36;75.74;98620.16;4914748;29;20048;-67
2022/09/10 00:43:50;;;;;;;0.40;0.40;;;;;;;15.41;75.31;98611.47;4914685;29;20385;-67
2022/09/10 00:46:25;;;;;;;0.30;0.30;;;;;;;15.45;75.37;98627.81;4915602;29;20044;-67
2022/09/10 00:48:55;;;;;;;0.30;0.30;;;;;;;15.48;75.63;98627.34;4914668;29;20408;-67
2022/09/10 00:51:24;;;;;;;0.57;0.40;;;;;;;15.52;75.58;98625.88;4915698;29;20059;-67
2022/09/10 00:53:51;;;;;;;1.00;0.50;;;;;;;15.53;75.35;98625.63;4914539;29;20055;-67
2022/09/10 00:56:18;;;;;;;1.17;0.50;;;;;;;15.55;75.25;98617.38;4914366;29;20044;-68
2022/09/10 00:58:46;;;;;;;0.30;0.30;;;;;;;15.53;74.98;98620.28;4914656;29;20044;-67
2022/09/10 01:01:14;;;;;;;0.38;0.38;;;;;;;15.52;75.38;98618.69;4914346;29;20055;-67
2022/09/10 01:03:43;;;;;;;0.30;0.30;;;;;;;15.51;75.40;98611.72;4914585;29;20052;-66
2022/09/10 01:06:10;;;;;;;0.32;0.32;;;;;;;15.49;75.46;98616.47;4907874;29;20051;-67
2022/09/10 01:08:37;;;;;;;0.63;0.38;;;;;;;15.51;75.52;98618.88;4914714;29;20074;-67
2022/09/10 01:11:19;;;;;;;0.35;0.35;;;;;;;15.49;75.17;98624.44;4919782;29;20040;-67
2022/09/10 01:14:08;;;;;;;0.45;0.38;;;;;;;15.50;75.46;98623.41;4921058;29;20048;-67
2022/09/10 01:16:48;;;;;;;0.50;0.50;;;;;;;15.51;75.48;98613.56;4920395;29;20056;-67
2022/09/10 01:20:03;;;;;;;0.50;0.40;;;;;;;15.49;75.21;98619.13;4920046;29;20048;-67
2022/09/10 01:23:10;;;;;;;0.50;0.50;;;;;;;15.48;75.53;98625.50;4919554;29;20040;-67
2022/09/10 01:26:07;;;;;;;0.63;0.60;;;;;;;15.48;75.41;98630.81;4904369;29;20052;-67
2022/09/10 01:29:04;;;;;;;0.90;0.57;;;;;;;15.52;75.45;98628.53;4903604;29;20060;-67
2022/09/10 01:31:47;;;;;;;2.35;0.70;;;;;;;15.53;75.06;98630.94;4919722;29;20052;-67
2022/09/10 01:34:23;;;;;;;0.60;0.60;;;;;;;15.56;75.46;98627.84;4914007;29;20079;-67
2022/09/10 01:36:55;;;;;;;0.68;0.68;;;;;;;15.57;75.20;98626.78;4917967;29;20147;-67
2022/09/10 01:39:23;;;;;;;0.90;0.80;;;;;;;15.58;75.40;98623.06;4918473;29;20064;-67
2022/09/10 01:41:53;;;;;;;1.75;1.38;;;;;;;15.61;75.43;98613.81;4902820;29;20076;-67
2022/09/10 01:44:40;;;;;;;1.20;0.85;;;;;;;15.62;75.19;98615.44;4917853;29;20048;-67
2022/09/10 01:47:16;;;;;;;1.67;1.02;;;;;;;15.66;75.42;98626.47;4917324;29;20111;-67
2022/09/10 01:50:21;;;;;;;1.75;1.10;;;;;;;15.68;74.90;98627.88;4917557;29;20052;-67
2022/09/10 01:53:09;;;;;;;1.35;1.20;;;;;;;15.67;75.38;98623.56;4917467;29;20074;-67
2022/09/10 01:56:04;;;;;;;2.30;1.63;;;;;;;15.70;75.52;98617.00;4921707;29;20055;-67
2022/09/10 01:58:40;;;;;;;1.50;1.10;;;;;;;15.70;75.51;98615.13;4926398;29;20059;-67
2022/09/10 02:01:35;;;;;;;1.05;0.98;;;;;;;15.72;75.12;98613.06;4932988;29;20056;-68
2022/09/10 02:04:07;;;;;;;0.93;0.93;;;;;;;15.73;75.42;98611.22;4938992;29;20063;-68
2022/09/10 02:06:38;;;;;;;1.02;1.02;;;;;;;15.76;75.60;98606.22;4940218;29;20036;-67
2022/09/10 02:09:06;;;;;;;1.10;1.00;;;;;;;15.78;75.55;98606.78;4931478;29;20107;-67
2022/09/10 02:11:49;;;;;;;1.17;1.00;;;;;;;15.80;75.30;98607.41;4938292;29;20056;-67
2022/09/10 02:14:26;;;;;;;1.48;1.38;;;;;;;15.78;75.13;98598.81;4941490;29;20078;-67
2022/09/10 02:17:11;;;;;;;1.73;1.20;;;;;;;15.79;75.37;98600.41;4941314;28;20032;-67
2022/09/10 02:19:38;;;;;;;1.52;1.40;;;;;;;15.81;75.54;98606.34;4941871;28;20050;-68
2022/09/10 02:22:05;;;;;;;1.30;1.02;;;;;;;15.84;75.48;98607.75;4942214;29;20032;-67
2022/09/10 02:24:32;;;;;;;2.22;1.40;;;;;;;15.83;75.49;98611.44;4939528;29;20040;-67
2022/09/10 02:26:59;;;;;;;1.83;1.33;;;;;;;15.83;75.58;98611.44;4926471;29;20052;-67
2022/09/10 02:29:27;;;;;;;1.42;1.33;;;;;;;15.83;75.11;98598.91;4920310;29;20587;-67
2022/09/10 02:31:53;;;;;;;1.45;1.30;;;;;;;15.80;75.06;98607.41;4920978;29;20095;-67
2022/09/10 02:34:20;;;;;;;2.08;1.40;;;;;;;15.79;75.39;98603.09;4927286;29;20036;-67
2022/09/10 02:36:48;;;;;;;2.88;1.38;;;;;;;15.78;75.52;98604.13;4920920;29;20059;-67
2022/09/10 02:39:15;;;;;;;1.63;1.50;;;;;;;15.76;75.60;98603.56;4917903;29;20091;-67
2022/09/10 02:41:43;;;;;;;1.30;1.20;;;;;;;15.76;75.38;98602.75;4916473;29;20390;-67
2022/09/10 02:44:09;;;;;;;1.50;1.40;;;;;;;15.73;75.44;98593.34;4916758;29;20135;-67
2022/09/10 02:46:37;;;;;;;1.30;1.20;;;;;;;15.73;75.48;98600.53;4917076;29;20044;-68
2022/09/10 02:49:03;;;;;;;1.38;1.25;;;;;;;15.73;75.60;98596.03;4917786;29;20496;-67
2022/09/10 02:51:35;;;;;;;0.98;0.90;;;;;;;15.74;75.49;98594.16;4901687;29;20047;-66
2022/09/10 02:54:03;;;;;;;1.15;0.95;;;;;;;15.72;75.91;98591.75;4917230;29;20060;-67
2022/09/10 02:56:30;;;;;;;1.08;0.90;;;;;;;15.73;75.96;98597.88;4918320;29;20044;-67
2022/09/10 02:58:56;;;;;;;3.00;1.00;;;;;;;15.75;75.93;98590.44;4916588;29;20119;-67
2022/09/10 03:01:25;;;;;;;1.38;1.05;;;;;;;15.76;75.55;98598.25;4916192;29;20048;-67
2022/09/10 03:03:58;;;;;;;1.52;1.25;;;;;;;15.75;75.70;98593.94;4916142;29;20107;-67
2022/09/10 03:06:25;;;;;;;0.90;0.90;;;;;;;15.76;76.09;98595.56;4916048;29;20052;-69
2022/09/10 03:08:54;;;;;;;0.77;0.77;;;;;;;15.79;75.73;98600.41;4885453;29;20079;-67
2022/09/10 03:11:24;;;;;;;1.63;1.10;;;;;;;15.78;75.40;98596.13;4916010;29;20063;-67
2022/09/10 03:13:51;;;;;;;0.90;0.90;;;;;;;15.75;75.61;98596.59;4916146;29;20044;-66
2022/09/10 03:16:18;;;;;;;1.27;1.17;;;;;;;15.75;75.66;98599.25;4900259;29;20144;-66
2022/09/10 03:18:46;;;;;;;1.05;0.90;;;;;;;15.77;75.85;98593.72;4915658;29;20424;-66
2022/09/10 03:21:19;;;;;;;0.93;0.77;;;;;;;15.78;75.95;98596.13;4900284;29;20527;-66
2022/09/10 03:23:48;;;;;;;1.02;0.65;;;;;;;15.80;75.38;98593.25;4900255;29;20084;-66
2022/09/10 03:26:20;;;;;;;;;;;;;;;15.77;75.25;98597.19;4916079;29;20465;-66
2022/09/10 03:28:47;;;;;;;1.38;0.85;;;;;;;15.75;75.72;98601.91;4916590;29;19939;-68
2022/09/10 03:31:17;;;;;;;2.10;0.90;;;;;;;15.72;75.93;98591.75;4916320;29;20086;-66
2022/09/10 03:33:46;;;;;;;0.93;0.80;;;;;;;15.75;75.67;98596.59;4900766;29;20048;-66
2022/09/10 03:36:13;;;;;;;1.08;1.00;;;;;;;15.75;76.13;98588.59;4901241;29;20052;-66
2022/09/10 03:38:41;;;;;;;0.90;0.90;;;;;;;15.74;75.71;98588.84;4902366;29;20076;-66
2022/09/10 03:41:08;;;;;;;1.95;0.90;;;;;;;15.74;75.57;98586.97;4916823;29;20048;-66
2022/09/10 03:43:35;;;;;;;1.45;0.98;;;;;;;15.73;75.89;98587.22;4917118;29;20497;-67
2022/09/10 03:46:06;;;;;;;1.52;1.05;;;;;;;15.73;75.81;98600.53;4928716;29;20055;-67
2022/09/10 03:48:38;;;;;;;1.10;0.93;;;;;;;15.72;75.92;98591.75;4931225;29;20115;-66
2022/09/10 03:51:06;;;;;;;1.10;0.85;;;;;;;15.74;75.72;98600.31;4927551;29;20473;-67
2022/09/10 03:53:33;;;;;;;2.50;1.40;;;;;;;15.76;75.68;98605.44;4925366;29;20087;-67
2022/09/10 03:56:02;;;;;;;1.38;0.95;;;;;;;15.77;75.80;98607.03;4926639;29;20057;-67
2022/09/10 03:58:31;;;;;;;1.25;1.15;;;;;;;15.78;75.62;98601.47;4930202;29;20055;-67
2022/09/10 04:03:56;;;;;;;1.67;1.17;;;;;;;15.76;75.54;98600.09;4875363;29;20524;-69
2022/09/10 04:06:25;;;;;;;2.45;0.80;;;;;;;15.74;75.78;98605.63;4892651;29;20047;-69
2022/09/10 04:08:51;;;;;;;2.08;0.90;;;;;;;15.73;76.07;98597.88;4874252;29;20053;-69
2022/09/10 04:11:22;;;;;;;0.80;0.80;;;;;;;15.71;75.93;98603.44;4874298;29;20061;-69
2022/09/10 04:13:50;;;;;;;1.17;0.70;;;;;;;15.70;76.25;98601.00;4874206;29;20078;-69
2022/09/10 04:16:18;;;;;;;0.93;0.80;;;;;;;15.68;76.16;98598.56;4895697;23;20573;-68
2022/09/10 04:18:45;;;;;;;1.73;0.90;;;;;;;15.69;76.25;98602.84;4911464;29;20108;-67
2022/09/10 04:21:14;;;;;;;1.50;0.80;;;;;;;15.67;76.24;98599.59;4911639;29;20048;-67
2022/09/10 04:23:42;;;;;;;2.20;1.00;;;;;;;15.71;76.45;98600.75;4895867;29;20104;-67
2022/09/10 04:26:13;;;;;;;0.70;0.70;;;;;;;15.71;76.38;98598.09;4896022;29;20696;-66
2022/09/10 04:28:41;;;;;;;2.22;1.00;;;;;;;15.71;75.92;98597.28;4895942;29;20120;-67
2022/09/10 04:31:09;;;;;;;0.60;0.57;;;;;;;15.70;76.30;98601.00;4881105;29;20052;-67
2022/09/10 04:33:36;;;;;;;1.00;0.60;;;;;;;15.70;76.51;98604.47;4903526;29;20045;-66
2022/09/10 04:36:04;;;;;;;0.50;0.50;;;;;;;15.72;76.25;98599.75;4880369;29;20064;-71
2022/09/10 04:38:38;;;;;;;1.33;1.20;;;;;;;15.74;76.26;98604.81;4881094;29;20061;-67
2022/09/10 04:41:08;;;;;;;1.17;0.90;;;;;;;15.73;75.98;98598.69;4880673;29;20108;-68
2022/09/10 04:43:36;;;;;;;1.85;0.90;;;;;;;15.73;75.99;98608.53;4880621;29;20049;-67
2022/09/10 04:46:04;;;;;;;0.50;0.50;;;;;;;15.70;76.14;98609.00;4895735;29;20052;-71
2022/09/10 04:48:33;;;;;;;1.23;0.90;;;;;;;15.68;76.61;98609.25;4880684;29;20048;-68
2022/09/10 04:51:00;;;;;;;2.13;0.80;;;;;;;15.66;76.35;98621.16;4895893;29;20517;-68
2022/09/10 04:53:46;;;;;;;0.80;0.80;;;;;;;15.65;76.59;98615.00;4883296;29;20497;-68
2022/09/10 04:56:13;;;;;;;0.70;0.70;;;;;;;15.64;76.68;98613.38;4897187;29;20088;-68
2022/09/10 04:58:40;;;;;;;0.95;0.88;;;;;;;15.65;76.90;98607.03;4880715;29;20505;-69
2022/09/10 05:01:07;;;;;;;1.00;0.90;;;;;;;15.65;76.95;98612.34;4895889;29;20052;-68
2022/09/10 05:03:34;;;;;;;1.20;1.10;;;;;;;15.66;76.52;98613.97;4880032;29;20089;-69
2022/09/10 05:06:02;;;;;;;1.40;1.00;;;;;;;15.64;76.97;98616.03;4898468;29;20488;-68
2022/09/10 05:08:29;;;;;;;1.73;1.10;;;;;;;15.64;76.66;98624.03;4900620;29;20072;-68
2022/09/10 05:10:57;;;;;;;1.55;1.00;;;;;;;15.64;77.16;98612.56;4899437;29;20143;-68
2022/09/10 05:13:24;;;;;;;0.85;0.85;;;;;;;15.62;76.78;98615.44;4899416;29;20064;-68
2022/09/10 05:15:50;;;;;;;1.52;1.25;;;;;;;15.59;77.23;98618.56;4899026;29;20135;-68
2022/09/10 05:18:17;;;;;;;1.23;1.00;;;;;;;15.59;77.40;98614.06;4883928;29;20412;-68
2022/09/10 05:20:44;;;;;;;1.27;1.10;;;;;;;15.60;77.20;98614.88;4883765;29;20052;-68
2022/09/10 05:23:10;;;;;;;1.08;0.98;;;;;;;15.60;77.08;98612.22;4899252;29;20127;-68
2022/09/10 05:25:38;;;;;;;2.00;1.52;;;;;;;15.62;77.54;98618.09;4899215;29;20067;-68
2022/09/10 05:28:05;;;;;;;1.55;1.08;;;;;;;15.61;77.25;98605.81;4883410;29;20508;-69
2022/09/10 05:30:32;;;;;;;1.13;1.02;;;;;;;15.63;77.03;98610.91;4899308;29;20064;-69
2022/09/10 05:33:00;;;;;;;1.17;1.00;;;;;;;15.66;77.16;98621.16;4883416;29;20044;-68
2022/09/10 05:35:29;;;;;;;1.30;1.02;;;;;;;15.67;77.27;98612.91;4898957;29;20057;-68
2022/09/10 05:37:57;;;;;;;1.45;0.90;;;;;;;15.72;77.70;98621.06;4883492;29;20056;-68
2022/09/10 05:40:24;;;;;;;1.30;1.20;;;;;;;15.75;77.04;98619.78;4883689;29;20048;-69
2022/09/10 05:42:53;;;;;;;2.25;1.00;;;;;;;15.76;76.80;98626.75;4898773;29;20057;-67
2022/09/10 05:45:22;;;;;;;1.88;1.30;;;;;;;15.75;76.95;98625.91;4898786;29;20057;-67
2022/09/10 05:47:50;;;;;;;2.15;0.90;;;;;;;15.79;77.10;98623.59;4898467;29;20508;-67
2022/09/10 05:50:20;;;;;;;2.10;1.00;;;;;;;15.80;77.08;98631.38;4898741;29;20052;-68
2022/09/10 05:52:47;;;;;;;1.67;0.90;;;;;;;15.82;77.03;98633.81;4898780;29;20532;-69
2022/09/10 05:55:14;;;;;;;1.77;0.93;;;;;;;15.83;77.09;98636.22;4898402;29;20068;-67
2022/09/10 05:57:41;;;;;;;1.02;0.93;;;;;;;15.89;76.91;98631.84;4899088;29;20446;-66
2022/09/10 06:00:11;;;;;;;1.88;0.93;;;;;;;15.95;77.01;98628.25;4883993;29;20068;-67
2022/09/10 06:02:44;;;;;;;1.15;1.05;;;;;;;16.01;76.80;98631.84;4883769;29;20048;-67
2022/09/10 06:05:24;;;;;;;2.75;1.10;;;;;;;16.10;76.42;98630.47;4884813;29;20382;-67
2022/09/10 06:07:51;;;;;;;3.75;1.20;;;;;;;16.19;76.11;98628.25;4898404;29;20049;-67
2022/09/10 06:10:18;;;;;;;2.97;1.10;;;;;;;16.26;75.98;98628.94;4898447;29;20057;-66
2022/09/10 06:12:50;;;;;;;2.55;1.10;;;;;;;16.35;75.73;98627.53;4883565;29;20072;-67
2022/09/10 06:15:20;;;;;;;1.50;1.00;;;;;;;16.39;75.83;98630.56;4898242;29;20045;-67
2022/09/10 06:17:47;;;;;;;2.47;1.23;;;;;;;16.37;75.58;98635.28;4897353;29;20052;-67
2022/09/10 06:20:15;;;;;;;2.20;1.30;;;;;;;16.38;75.48;98637.75;4898255;29;20437;-66
2022/09/10 06:22:43;;;;;;;2.03;1.17;;;;;;;16.43;75.54;98642.38;4898699;29;20509;-67
2022/09/10 06:25:11;;;;;;;3.17;1.38;;;;;;;16.45;75.25;98654.44;4898382;29;20420;-68
2022/09/10 06:27:39;;;;;;;3.47;1.20;;;;;;;16.48;75.18;98647.81;4898006;29;20457;-68
2022/09/10 06:30:07;;;;;;;3.30;1.83;;;;;;;16.50;75.29;98656.41;4898225;29;20048;-68
2022/09/10 06:32:38;;;;;;;2.28;1.13;;;;;;;16.52;74.57;98655.09;4882931;29;20112;-69
2022/09/10 06:35:07;;;;;;;3.15;1.40;;;;;;;16.53;75.05;98659.44;4883184;29;20473;-70
2022/09/10 06:37:36;;;;;;;3.03;1.30;;;;;;;16.57;75.27;98657.06;4882385;29;20061;-68
2022/09/10 06:40:06;;;;;;;2.08;1.10;;;;;;;16.63;74.99;98664.16;4898107;29;20044;-68
2022/09/10 06:42:33;;;;;;;1.75;1.35;;;;;;;16.64;74.48;98660.44;4882836;29;20537;-69
2022/09/10 06:45:06;;;;;;;2.28;1.38;;;;;;;16.67;74.23;98665.31;4899089;29;20052;-67
2022/09/10 06:47:59;;;;;;;3.13;1.50;;;;;;;16.72;74.54;98660.06;4883279;29;20060;-67
2022/09/10 06:51:00;;;;;;;1.70;1.02;;;;;;;16.73;74.74;98661.72;4898227;29;20450;-68
2022/09/10 06:53:34;;;;;;;3.38;1.63;;;;;;;16.73;74.37;98667.06;4897026;29;20077;-67
2022/09/10 06:56:07;;;;;;;2.47;1.42;;;;;;;16.71;74.49;98666.47;4883479;29;20045;-68
2022/09/10 06:58:34;;;;;;;2.40;1.38;;;;;;;16.72;74.62;98662.72;4883830;29;20048;-69
2022/09/10 07:01:10;;;;;;;2.50;1.30;;;;;;;16.74;74.03;98666.03;4883295;29;20104;-69
2022/09/10 07:03:38;;;;;;;1.38;1.00;;;;;;;16.79;74.11;98668.00;4897102;29;20049;-70
2022/09/10 07:06:08;;;;;;;1.25;1.10;;;;;;;16.92;73.83;98669.56;4899952;29;20045;-70
2022/09/10 07:08:38;;;;;;;3.67;1.67;;;;;;;17.09;73.32;98667.75;4898949;29;20548;-68
2022/09/10 07:11:11;;;;;;;3.60;1.48;;;;;;;17.13;73.00;98666.25;4883836;29;20059;-69
2022/09/10 07:13:39;;;;;;;2.05;1.30;;;;;;;17.16;73.14;98667.63;4898608;29;20044;-70
2022/09/10 07:16:06;;;;;;;3.28;2.00;;;;;;;17.19;73.09;98664.50;4882737;29;20061;-69
2022/09/10 07:18:34;;;;;;;2.35;1.27;;;;;;;17.17;72.92;98663.91;4882656;29;20429;-67
2022/09/10 07:21:07;;;;;;;1.20;1.00;;;;;;;17.04;72.41;98671.16;4897721;29;20049;-68
2022/09/10 07:23:42;;;;;;;3.90;1.33;;;;;;;16.95;72.54;98664.56;4897188;29;20067;-69
2022/09/10 07:26:12;;;;;;;3.35;1.50;;;;;;;16.94;72.73;98662.97;4896770;29;20148;-68
2022/09/10 07:28:51;;;;;;;3.58;1.27;;;;;;;16.91;72.71;98670.63;4882105;29;20144;-69
2022/09/10 07:31:20;;;;;;;2.45;1.30;;;;;;;16.88;72.59;98679.09;4881635;29;20353;-68
2022/09/10 07:33:49;;;;;;;2.17;1.30;;;;;;;16.93;72.58;98684.53;4896494;29;20081;-68
2022/09/10 07:36:17;;;;;;;2.40;1.10;;;;;;;17.01;72.21;98679.63;4881373;29;20064;-68
2022/09/10 07:38:46;;;;;;;3.17;1.35;;;;;;;17.05;71.92;98688.78;4896993;29;20049;-69
2022/09/10 07:41:14;;;;;;;2.30;0.93;;;;;;;17.11;72.44;98684.38;4896571;29;20044;-69
2022/09/10 07:43:42;;;;;;;1.63;0.98;;;;;;;17.18;71.70;98692.22;4896513;29;20135;-70
2022/09/10 07:46:13;;;;;;;1.42;1.10;;;;;;;17.24;71.54;98689.44;4896663;29;20105;-69
2022/09/10 07:48:40;;;;;;;3.45;1.20;;;;;;;17.41;70.71;98692.16;4896903;29;20080;-69
2022/09/10 07:51:10;;;;;;;2.03;1.27;;;;;;;17.68;70.45;98700.38;4896657;29;20576;-69
2022/09/10 07:53:37;;;;;;;2.03;1.27;;;;;;;17.93;70.22;98702.72;4881133;29;20497;-69
2022/09/10 07:56:06;;;;;;;2.15;1.20;;;;;;;18.00;69.68;98708.72;4896200;29;20048;-70
2022/09/10 07:58:37;;;;;;;2.08;1.20;;;;;;;18.00;69.85;98707.88;4896543;29;20049;-68
2022/09/10 08:01:11;;;;;;;2.08;1.08;;;;;;;18.01;69.56;98712.19;4896526;29;20108;-68
2022/09/10 08:03:39;;;;;;;3.40;1.23;;;;;;;18.07;69.61;98703.19;4896083;29;20045;-70
2022/09/10 08:06:08;;;;;;;1.85;1.00;;;;;;;18.11;68.85;98701.66;4892922;29;20049;-70
2022/09/10 08:08:38;;;;;;;1.60;0.88;;;;;;;18.23;68.45;98705.03;4862697;29;20049;-70
2022/09/10 08:11:11;;;;;;;2.85;1.08;;;;;;;18.40;67.76;98709.56;4877673;29;20048;-69
2022/09/10 08:13:41;;;;;;;2.15;0.90;;;;;;;18.51;67.80;98709.47;4862990;29;20048;-68
2022/09/10 08:16:11;;;;;;;2.13;1.35;;;;;;;18.65;67.35;98707.25;4878349;29;20044;-69
2022/09/10 08:18:41;;;;;;;3.17;1.20;;;;;;;18.75;67.14;98710.09;4877570;29;20066;-70
2022/09/10 08:21:10;;;;;;;1.27;0.80;;;;;;;18.79;66.64;98711.22;4877688;29;20072;-68
2022/09/10 08:23:40;;;;;;;3.28;1.10;;;;;;;18.86;66.42;98716.41;4877634;29;20133;-70
2022/09/10 08:26:07;;;;;;;1.65;1.10;;;;;;;18.87;66.07;98718.03;4861746;29;20048;-70
2022/09/10 08:28:36;;;;;;;3.28;1.27;;;;;;;18.88;65.94;98714.28;4862434;29;20573;-69
2022/09/10 08:31:07;;;;;;;1.98;1.00;;;;;;;18.97;65.90;98718.13;4877635;29;20053;-68
2022/09/10 08:33:47;;;;;;;2.55;1.15;;;;;;;19.16;65.35;98712.47;4900430;29;20044;-68
2022/09/10 08:36:15;;;;;;;;;;;;;;;19.29;65.34;98718.25;4862339;29;20045;-68
2022/09/10 08:38:43;;;;;;;3.58;1.05;;;;;;;19.36;64.56;98720.75;4878049;29;19924;-67
2022/09/10 08:41:40;;;;;;;3.30;0.90;;;;;;;19.39;64.55;98714.06;4880849;29;20055;-68
2022/09/10 08:44:38;;;;;;;1.52;0.80;;;;;;;19.58;64.60;98718.00;4881696;29;20116;-69
2022/09/10 08:47:20;;;;;;;1.70;0.75;;;;;;;19.82;63.44;98728.47;4880846;29;20139;-68
2022/09/10 08:50:01;;;;;;;1.63;0.95;;;;;;;19.97;62.38;98726.72;4866057;29;20055;-65
2022/09/10 08:52:42;;;;;;;3.15;1.20;;;;;;;19.94;61.74;98727.22;4896738;29;20061;-66
2022/09/10 08:55:20;;;;;;;1.08;0.73;;;;;;;19.90;62.19;98733.38;4881229;29;20053;-66
2022/09/10 08:58:13;;;;;;;1.67;0.80;;;;;;;19.85;61.79;98715.34;4881269;29;20573;-67
2022/09/10 09:00:43;;;;;;;2.90;1.00;;;;;;;19.84;61.99;98727.16;4880713;29;20084;-68
2022/09/10 09:03:23;;;;;;;2.00;0.77;;;;;;;19.87;61.82;98728.50;4892165;29;20136;-69
2022/09/10 09:05:54;;;;;;;1.55;0.73;;;;;;;19.92;61.38;98728.53;4896277;29;20077;-66
2022/09/10 09:08:32;;;;;;;1.40;0.60;;;;;;;19.85;61.48;98738.69;4866589;29;20045;-67
2022/09/10 09:11:35;;;;;;;2.70;0.70;;;;;;;19.70;61.68;98728.63;4865842;29;20427;-67
2022/09/10 09:14:20;;;;;;;1.48;0.82;;;;;;;19.65;61.25;98734.75;4877910;29;20092;-68
2022/09/10 09:17:15;;;;;;;1.05;0.60;;;;;;;19.69;61.19;98729.69;4864545;29;20102;-68
2022/09/10 09:20:01;;;;;;;1.25;0.80;;;;;;;19.88;60.99;98725.59;4880653;29;20509;-68
2022/09/10 09:22:46;;;;;;;1.85;0.80;;;;;;;20.04;60.48;98729.19;4866048;29;20053;-68
2022/09/10 09:25:26;;;;;;;2.45;1.02;;;;;;;20.13;60.18;98734.91;4880500;29;20488;-68
2022/09/10 09:27:57;;;;;;;5.88;1.30;;;;;;;20.16;60.59;98729.81;4880046;29;20057;-67
2022/09/10 09:30:36;;;;;;;2.15;0.98;;;;;;;20.19;60.34;98739.25;4880417;29;20053;-69
2022/09/10 09:33:13;;;;;;;2.05;1.15;;;;;;;20.10;60.16;98736.22;4898212;29;20048;-68
2022/09/10 09:35:45;;;;;;;1.80;1.05;;;;;;;19.92;60.37;98725.84;4864859;29;20049;-68
2022/09/10 09:38:36;;;;;;;2.35;0.77;;;;;;;19.78;60.50;98734.34;4879923;29;20045;-69
2022/09/10 09:41:20;;;;;;;2.28;0.98;;;;;;;19.65;60.84;98737.44;4880603;29;20077;-69
2022/09/10 09:44:23;;;;;;;1.67;0.63;;;;;;;19.47;61.21;98735.06;4895848;29;20504;-68
2022/09/10 09:46:50;;;;;;;3.25;1.00;;;;;;;19.33;61.92;98741.88;4895173;29;20108;-68
2022/09/10 09:49:17;;;;;;;1.55;0.90;;;;;;;19.24;62.50;98734.28;4880007;29;20105;-68
2022/09/10 09:51:47;;;;;;;2.30;0.80;;;;;;;19.23;62.72;98745.25;4894516;29;20109;-68
2022/09/10 09:54:21;;;;;;;1.73;1.02;;;;;;;19.30;62.77;98746.66;4880041;29;20056;-67
2022/09/10 09:57:14;;;;;;;2.80;0.90;;;;;;;19.35;62.89;98742.41;4892586;29;20083;-67
2022/09/10 09:59:41;;;;;;;2.83;1.00;;;;;;;19.29;63.28;98749.59;4895326;29;20049;-67
2022/09/10 10:02:14;;;;;;;1.70;0.80;;;;;;;19.21;63.41;98747.38;4883264;29;20055;-67
2022/09/10 10:05:21;;;;;;;2.03;0.68;;;;;;;19.12;63.84;98746.19;4882966;29;20096;-67
2022/09/10 10:07:48;;;;;;;0.88;0.60;;;;;;;19.14;64.15;98755.56;4882679;29;20057;-67
2022/09/10 10:10:23;;;;;;;1.70;0.80;;;;;;;19.09;64.18;98749.34;4898482;29;20052;-67
2022/09/10 10:12:52;;;;;;;2.63;0.90;;;;;;;19.05;64.27;98749.84;4882741;29;20060;-67
2022/09/10 10:15:41;;;;;;;2.63;0.95;;;;;;;18.96;64.66;98748.66;4898017;29;20075;-67
2022/09/10 10:18:37;;;;;;;1.77;0.80;;;;;;;18.97;65.08;98736.88;4931647;23;20444;-70
2022/09/10 10:21:30;;;;;;;1.95;0.80;;;;;;;18.96;65.19;98740.63;4905605;29;20400;-68
2022/09/10 10:23:57;;;;;;;3.50;1.33;;;;;;;18.89;65.62;98734.63;4912132;29;20150;-68
2022/09/10 10:26:27;;;;;;;2.00;0.70;;;;;;;18.80;65.52;98741.50;4917731;29;20123;-68
2022/09/10 10:29:00;;;;;;;0.85;0.70;;;;;;;18.73;65.83;98738.97;4917946;29;20047;-69
2022/09/10 10:31:42;;;;;;;1.20;0.80;;;;;;;18.73;65.89;98738.97;4918196;29;20654;-68
2022/09/10 10:34:08;;;;;;;1.05;0.70;;;;;;;18.68;65.95;98738.88;4917909;29;20279;-68
2022/09/10 10:36:43;;;;;;;2.58;0.82;;;;;;;18.54;66.27;98737.63;4917592;29;20051;-68
2022/09/10 10:39:27;;;;;;;2.72;0.70;;;;;;;18.43;66.53;98744.69;4917750;29;20059;-70
2022/09/10 10:42:09;;;;;;;1.70;0.77;;;;;;;18.41;66.92;98741.47;4916443;29;20104;-69
2022/09/10 10:44:48;;;;;;;1.95;0.60;;;;;;;18.39;67.19;98748.91;4917590;29;20044;-67
2022/09/10 10:47:34;;;;;;;3.03;0.95;;;;;;;18.29;67.30;98740.75;4917716;29;20174;-68
2022/09/10 10:50:07;;;;;;;0.80;0.55;;;;;;;18.21;67.71;98741.94;4916704;29;20044;-68
2022/09/10 10:52:53;;;;;;;1.35;0.60;;;;;;;18.20;68.02;98736.81;4916608;29;20500;-69
2022/09/10 10:55:30;;;;;;;2.65;1.08;;;;;;;18.15;68.09;98732.22;4917820;29;20107;-69
2022/09/10 10:58:28;;;;;;;4.18;1.10;;;;;;;18.17;68.20;98732.78;4919773;29;20056;-69
2022/09/10 11:01:01;;;;;;;1.90;0.90;;;;;;;18.28;68.57;98739.91;4908489;29;20056;-68
2022/09/10 11:03:43;;;;;;;2.10;0.90;;;;;;;18.41;68.09;98732.59;4923811;29;20080;-69
2022/09/10 11:06:19;;;;;;;1.60;0.90;;;;;;;18.47;68.32;98739.66;4896917;29;20052;-68
2022/09/10 11:08:56;;;;;;;1.38;0.80;;;;;;;18.58;68.57;98735.28;4898430;29;20052;-68
2022/09/10 11:11:37;;;;;;;1.80;1.00;;;;;;;18.71;68.07;98730.41;4897847;29;20045;-68
2022/09/10 11:14:26;;;;;;;2.22;0.88;;;;;;;18.75;67.68;98736.88;4912961;29;20079;-69
2022/09/10 11:16:58;;;;;;;2.50;0.88;;;;;;;18.77;67.52;98736.63;4897690;29;20060;-68
2022/09/10 11:19:25;;;;;;;2.22;0.80;;;;;;;18.87;67.89;98734.09;4898057;29;20045;-69
2022/09/10 11:22:10;;;;;;;0.98;0.80;;;;;;;18.91;67.73;98731.72;4898429;29;20044;-69
2022/09/10 11:24:56;;;;;;;1.27;0.63;;;;;;;18.97;67.79;98728.03;4898446;29;20049;-68
2022/09/10 11:27:34;;;;;;;1.35;0.82;;;;;;;19.12;67.41;98722.88;4898642;29;20108;-70
2022/09/10 11:30:08;;;;;;;1.35;0.70;;;;;;;19.11;66.71;98726.63;4896975;29;20048;-70
2022/09/10 11:32:44;;;;;;;2.38;0.73;;;;;;;19.15;66.78;98730.44;4922373;29;20059;-70
2022/09/10 11:35:44;;;;;;;0.73;0.70;;;;;;;19.21;66.19;98720.56;4920654;29;20761;-70
2022/09/10 11:38:23;;;;;;;0.90;0.60;;;;;;;19.43;66.00;98728.56;4934486;29;20056;-70
2022/09/10 11:41:02;;;;;;;1.25;0.60;;;;;;;19.67;65.59;98727.25;4918746;29;20416;-69
2022/09/10 11:43:41;;;;;;;1.70;0.90;;;;;;;19.89;65.69;98726.41;4935606;29;20099;-69
2022/09/10 11:46:19;;;;;;;3.83;1.20;;;;;;;20.11;64.19;98728.97;4934047;29;20066;-68
2022/09/10 11:49:05;;;;;;;2.22;1.10;;;;;;;20.32;63.93;98728.06;4935340;29;20114;-69
2022/09/10 11:51:36;;;;;;;0.63;0.63;;;;;;;20.32;63.88;98722.69;4935438;29;20075;-69
2022/09/10 11:54:09;;;;;;;0.85;0.65;;;;;;;20.46;64.07;98721.19;4934254;29;20083;-71
2022/09/10 11:57:02;;;;;;;1.23;0.50;;;;;;;20.69;63.61;98728.06;4933892;29;20055;-71
2022/09/10 11:59:44;;;;;;;0.65;0.47;;;;;;;20.89;62.26;98723.88;4934063;29;20052;-70
2022/09/10 12:02:52;;;;;;;0.95;0.60;;;;;;;20.99;62.29;98721.25;4935278;29;20043;-70
2022/09/10 12:05:24;;;;;;;1.38;0.50;;;;;;;21.03;61.96;98731.19;4901155;29;20160;-70
2022/09/10 12:08:00;;;;;;;0.80;0.50;;;;;;;21.13;61.39;98729.63;4913698;29;20048;-70